createdAt,value
2018-02-20T00:01:13.731Z,15.20
2018-02-20T00:03:41.414Z,15.57
2018-02-20T00:06:08.988Z,16.10
2018-02-20T00:08:36.474Z,15.07
2018-02-20T00:11:03.947Z,15.98
2018-02-20T00:13:31.525Z,18.08
2018-02-20T00:15:59.769Z,15.43
2018-02-20T00:18:27.222Z,16.27
2018-02-20T00:20:54.684Z,16.08
2018-02-20T00:23:26.192Z,15.40
2018-02-20T00:25:53.721Z,16.58
2018-02-20T00:28:21.169Z,17.37
2018-02-20T00:30:49.430Z,16.55
2018-02-20T00:33:16.891Z,15.88
2018-02-20T00:35:44.355Z,15.38
2018-02-20T00:38:12.608Z,16.30
2018-02-20T00:40:40.255Z,15.80
2018-02-20T00:43:07.719Z,16.08
2018-02-20T00:45:35.176Z,16.30
2018-02-20T00:48:02.669Z,17.60
2018-02-20T00:50:30.900Z,17.45
2018-02-20T00:52:58.360Z,15.85
2018-02-20T00:55:26.075Z,16.65
2018-02-20T00:57:53.544Z,17.70
2018-02-20T01:00:21.462Z,15.57
2018-02-20T01:02:48.929Z,17.08
2018-02-20T01:05:16.385Z,16.62
2018-02-20T01:07:43.888Z,16.25
2018-02-20T01:10:11.410Z,17.15
2018-02-20T01:12:39.025Z,17.17
2018-02-20T01:15:06.471Z,16.37
2018-02-20T01:17:33.931Z,16.35
2018-02-20T01:20:01.483Z,17.23
2018-02-20T01:22:28.941Z,16.37
2018-02-20T01:24:56.407Z,17.42
2018-02-20T01:27:23.864Z,15.60
2018-02-20T01:29:51.320Z,15.95
2018-02-20T01:32:18.833Z,17.95
2018-02-20T01:34:46.314Z,15.85
2018-02-20T01:37:13.759Z,16.83
2018-02-20T01:39:41.254Z,15.98
2018-02-20T01:42:09.945Z,17.35
2018-02-20T01:44:37.476Z,18.60
2018-02-20T01:47:04.955Z,16.30
2018-02-20T01:49:32.400Z,18.48
2018-02-20T01:51:59.939Z,18.62
2018-02-20T01:54:27.421Z,17.50
2018-02-20T01:56:54.877Z,18.50
2018-02-20T01:59:22.392Z,17.73
2018-02-20T02:01:50.035Z,16.30
2018-02-20T02:04:18.262Z,20.50
2018-02-20T02:06:49.745Z,17.52
2018-02-20T02:09:17.211Z,18.15
2018-02-20T02:11:44.736Z,16.42
2018-02-20T02:14:12.199Z,19.15
2018-02-20T02:16:39.638Z,18.25
2018-02-20T02:19:07.867Z,20.45
2018-02-20T02:21:35.345Z,18.83
2018-02-20T02:24:02.878Z,20.33
2018-02-20T02:26:31.131Z,19.00
2018-02-20T02:28:58.585Z,19.02
2018-02-20T02:31:26.039Z,18.83
2018-02-20T02:33:53.496Z,18.67
2018-02-20T02:36:20.981Z,20.50
2018-02-20T02:38:48.420Z,20.95
2018-02-20T02:41:15.900Z,19.85
2018-02-20T02:43:43.326Z,19.33
2018-02-20T02:46:11.600Z,23.00
2018-02-20T02:48:39.073Z,19.92
2018-02-20T02:51:06.534Z,22.42
2018-02-20T02:53:34.848Z,20.15
2018-02-20T02:56:02.299Z,21.87
2018-02-20T02:58:29.808Z,22.27
2018-02-20T03:00:58.225Z,20.50
2018-02-20T03:03:25.718Z,19.73
2018-02-20T03:05:53.176Z,19.70
2018-02-20T03:08:20.631Z,22.50
2018-02-20T03:10:48.108Z,20.90
2018-02-20T03:13:16.360Z,19.95
2018-02-20T03:15:43.849Z,22.17
2018-02-20T03:18:12.104Z,23.70
2018-02-20T03:20:39.582Z,22.08
2018-02-20T03:23:07.825Z,21.23
2018-02-20T03:25:35.286Z,20.75
2018-02-20T03:28:02.747Z,20.92
2018-02-20T03:30:30.233Z,20.05
2018-02-20T03:32:58.509Z,20.10
2018-02-20T03:35:25.943Z,21.15
2018-02-20T03:37:54.172Z,22.15
2018-02-20T03:40:21.611Z,21.20
2018-02-20T03:42:49.147Z,19.80
2018-02-20T03:45:16.598Z,19.87
2018-02-20T03:47:44.082Z,23.23
2018-02-20T03:50:11.526Z,20.90
2018-02-20T03:52:38.997Z,20.50
2018-02-20T03:55:06.435Z,21.00
2018-02-20T03:57:33.893Z,21.05
2018-02-20T04:00:01.370Z,20.40
2018-02-20T04:02:28.829Z,20.67
2018-02-20T04:04:56.287Z,19.83
2018-02-20T04:07:23.747Z,19.10
2018-02-20T04:09:51.224Z,19.87
2018-02-20T04:12:18.653Z,18.90
2018-02-20T04:14:46.117Z,20.05
2018-02-20T04:17:13.558Z,20.35
2018-02-20T04:19:41.012Z,19.27
2018-02-20T04:22:09.169Z,19.62
2018-02-20T04:24:37.060Z,20.48
2018-02-20T04:27:04.506Z,19.62
2018-02-20T04:29:32.033Z,19.90
2018-02-20T04:32:00.342Z,21.55
2018-02-20T04:34:27.789Z,19.17
2018-02-20T04:36:55.273Z,19.65
2018-02-20T04:39:22.721Z,19.58
2018-02-20T04:41:50.179Z,19.95
2018-02-20T04:44:17.616Z,19.55
2018-02-20T04:46:45.095Z,19.83
2018-02-20T04:49:12.537Z,20.37
2018-02-20T04:51:40.003Z,19.87
2018-02-20T04:54:07.443Z,19.65
2018-02-20T04:56:34.896Z,19.83
2018-02-20T04:59:03.176Z,19.77
2018-02-20T05:01:31.332Z,21.08
2018-02-20T05:03:58.787Z,21.55
2018-02-20T05:06:26.274Z,19.40
2018-02-20T05:08:53.748Z,19.23
2018-02-20T05:11:21.228Z,19.42
2018-02-20T05:13:49.439Z,21.17
2018-02-20T05:16:16.891Z,20.40
2018-02-20T05:18:44.365Z,21.12
2018-02-20T05:21:11.826Z,20.25
2018-02-20T05:23:39.296Z,20.70
2018-02-20T05:26:06.728Z,20.15
2018-02-20T05:28:34.195Z,20.20
2018-02-20T05:31:02.522Z,21.80
2018-02-20T05:33:30.028Z,21.25
2018-02-20T05:35:57.592Z,21.65
2018-02-20T05:38:26.696Z,22.20
2018-02-20T05:40:54.183Z,19.73
2018-02-20T05:43:22.421Z,21.37
2018-02-20T05:45:49.859Z,21.40
2018-02-20T05:48:17.328Z,20.45
2018-02-20T05:50:44.814Z,20.30
2018-02-20T05:53:12.239Z,21.08
2018-02-20T05:55:39.766Z,22.15
2018-02-20T05:58:08.205Z,20.40
2018-02-20T06:00:35.671Z,20.33
2018-02-20T06:03:03.158Z,18.15
2018-02-20T06:05:30.639Z,21.75
2018-02-20T06:07:58.104Z,21.15
2018-02-20T06:10:25.555Z,20.02
2018-02-20T06:12:52.998Z,19.40
2018-02-20T06:15:20.485Z,21.40
2018-02-20T06:17:48.028Z,20.35
2018-02-20T06:20:15.490Z,20.92
2018-02-20T06:22:43.747Z,22.13
2018-02-20T06:25:11.200Z,23.25
2018-02-20T06:27:38.654Z,21.23
2018-02-20T06:30:06.109Z,21.90
2018-02-20T06:32:33.631Z,22.27
2018-02-20T06:35:01.903Z,23.80
2018-02-20T06:37:29.357Z,22.27
2018-02-20T06:39:56.818Z,21.92
2018-02-20T06:42:24.294Z,20.42
2018-02-20T06:44:52.509Z,24.08
2018-02-20T06:47:20.764Z,23.70
2018-02-20T06:49:48.268Z,22.23
2018-02-20T06:52:15.744Z,22.35
2018-02-20T06:54:43.178Z,22.55
2018-02-20T06:57:10.652Z,21.33
2018-02-20T06:59:38.865Z,21.90
2018-02-20T07:02:06.338Z,24.58
2018-02-20T07:04:33.828Z,22.70
2018-02-20T07:07:02.060Z,22.35
2018-02-20T07:09:29.579Z,22.20
2018-02-20T07:11:57.056Z,21.92
2018-02-20T07:14:24.509Z,22.67
2018-02-20T07:16:51.952Z,22.45
2018-02-20T07:19:19.450Z,22.67
2018-02-20T07:21:47.715Z,23.62
2018-02-20T07:24:15.227Z,21.67
2018-02-20T07:26:43.436Z,21.05
2018-02-20T07:29:10.927Z,22.70
2018-02-20T07:31:38.408Z,21.15
2018-02-20T07:34:05.885Z,21.02
2018-02-20T07:36:33.353Z,24.27
2018-02-20T07:39:00.800Z,21.60
2018-02-20T07:41:28.290Z,20.67
2018-02-20T07:43:56.564Z,23.67
2018-02-20T07:46:24.720Z,21.75
2018-02-20T07:48:52.176Z,22.70
2018-02-20T07:51:19.633Z,21.37
2018-02-20T07:53:47.094Z,19.77
2018-02-20T07:56:14.548Z,21.98
2018-02-20T07:58:42.009Z,21.62
2018-02-20T08:01:09.476Z,23.23
2018-02-20T08:03:36.931Z,21.23
2018-02-20T08:06:04.392Z,22.20
2018-02-20T08:08:31.902Z,19.98
2018-02-20T08:11:00.144Z,23.00
2018-02-20T08:13:27.641Z,22.02
2018-02-20T08:15:55.873Z,21.12
2018-02-20T08:18:23.360Z,24.45
2018-02-20T08:20:51.587Z,23.48
2018-02-20T08:23:19.110Z,24.73
2018-02-20T08:25:46.600Z,23.58
2018-02-20T08:28:14.064Z,22.90
2018-02-20T08:30:41.513Z,23.62
2018-02-20T08:33:08.971Z,22.83
2018-02-20T08:35:36.407Z,24.52
2018-02-20T08:38:04.187Z,24.27
2018-02-20T08:40:31.630Z,21.73
2018-02-20T08:42:59.109Z,20.73
2018-02-20T08:45:26.548Z,22.25
2018-02-20T08:47:54.137Z,20.90
2018-02-20T08:50:21.619Z,22.98
2018-02-20T08:52:49.837Z,21.62
2018-02-20T08:55:17.315Z,21.58
2018-02-20T08:57:44.789Z,23.00
2018-02-20T09:00:13.047Z,21.92
2018-02-20T09:02:40.494Z,22.73
2018-02-20T09:05:07.970Z,26.90
2018-02-20T09:07:35.419Z,22.10
2018-02-20T09:10:02.881Z,23.00
2018-02-20T09:12:30.352Z,21.30
2018-02-20T09:14:57.939Z,21.95
2018-02-20T09:17:25.406Z,20.25
2018-02-20T09:19:52.879Z,23.60
2018-02-20T09:22:20.326Z,21.90
2018-02-20T09:24:47.791Z,22.77
2018-02-20T09:27:15.279Z,23.80
2018-02-20T09:29:43.517Z,22.50
2018-02-20T09:32:10.957Z,21.87
2018-02-20T09:34:38.405Z,22.30
2018-02-20T09:37:05.889Z,22.67
2018-02-20T09:39:33.343Z,24.35
2018-02-20T09:42:04.968Z,22.77
2018-02-20T09:44:32.406Z,21.87
2018-02-20T09:46:59.918Z,23.27
2018-02-20T09:49:27.840Z,22.85
2018-02-20T09:51:56.061Z,21.33
2018-02-20T09:54:23.498Z,23.55
2018-02-20T09:56:50.972Z,20.75
2018-02-20T09:59:18.420Z,22.40
2018-02-20T10:01:45.890Z,22.15
2018-02-20T10:04:13.356Z,22.70
2018-02-20T10:06:40.978Z,20.90
2018-02-20T10:09:08.471Z,21.15
2018-02-20T10:11:35.921Z,22.02
2018-02-20T10:14:03.378Z,22.25
2018-02-20T10:16:30.820Z,21.70
2018-02-20T10:18:58.295Z,24.35
2018-02-20T10:21:25.745Z,23.75
2018-02-20T10:23:53.215Z,25.20
2018-02-20T10:26:21.439Z,23.23
2018-02-20T10:28:48.901Z,23.80
2018-02-20T10:31:16.354Z,21.58
2018-02-20T10:33:43.824Z,23.80
2018-02-20T10:36:11.277Z,23.30
2018-02-20T10:38:38.778Z,24.40
2018-02-20T10:41:07.052Z,23.60
2018-02-20T10:43:36.038Z,23.02
2018-02-20T10:46:03.565Z,22.87
2018-02-20T10:48:31.011Z,22.50
2018-02-20T10:50:58.496Z,24.30
2018-02-20T10:53:25.982Z,24.63
2018-02-20T10:55:54.203Z,25.00
2018-02-20T10:58:21.668Z,24.00
2018-02-20T11:00:49.136Z,25.42
2018-02-20T11:03:16.598Z,23.98
2018-02-20T11:05:44.080Z,25.23
2018-02-20T11:08:12.284Z,27.52
2018-02-20T11:10:39.750Z,26.08
2018-02-20T11:13:07.216Z,25.10
2018-02-20T11:15:34.759Z,25.15
2018-02-20T11:18:02.207Z,24.00
2018-02-20T11:20:29.671Z,24.37
2018-02-20T11:22:57.148Z,23.85
2018-02-20T11:25:24.610Z,22.60
2018-02-20T11:27:52.078Z,23.92
2018-02-20T11:30:19.520Z,24.92
2018-02-20T11:32:46.989Z,24.40
2018-02-20T11:35:14.511Z,23.58
2018-02-20T11:37:42.077Z,24.87
2018-02-20T11:40:09.539Z,25.67
2018-02-20T11:42:37.000Z,23.12
2018-02-20T11:45:04.464Z,23.50
2018-02-20T11:47:31.928Z,24.30
2018-02-20T11:49:59.372Z,26.70
2018-02-20T11:52:26.824Z,22.90
2018-02-20T11:54:54.286Z,25.50
2018-02-20T11:57:22.522Z,24.02
2018-02-20T11:59:49.963Z,22.65
2018-02-20T12:02:17.435Z,22.62
2018-02-20T12:04:44.883Z,22.55
2018-02-20T12:07:12.388Z,22.02
2018-02-20T12:09:39.846Z,22.67
2018-02-20T12:12:07.323Z,21.73
2018-02-20T12:14:34.821Z,22.70
2018-02-20T12:17:02.284Z,21.52
2018-02-20T12:19:29.747Z,20.35
2018-02-20T12:21:57.181Z,21.00
2018-02-20T12:24:24.641Z,21.35
2018-02-20T12:26:52.087Z,19.77
2018-02-20T12:29:19.655Z,19.05
2018-02-20T12:31:47.098Z,20.08
2018-02-20T12:34:14.573Z,20.02
2018-02-20T12:36:42.048Z,19.40
2018-02-20T12:39:10.315Z,17.70
2018-02-20T12:41:37.868Z,18.15
2018-02-20T12:44:05.427Z,15.60
2018-02-20T12:46:32.855Z,18.42
2018-02-20T12:49:00.316Z,17.80
2018-02-20T12:51:27.770Z,16.05
2018-02-20T12:53:55.235Z,18.10
2018-02-20T12:56:22.674Z,18.40
2018-02-20T12:58:50.133Z,18.40
2018-02-20T13:01:17.608Z,17.02
2018-02-20T13:03:45.046Z,19.20
2018-02-20T13:06:12.533Z,17.85
2018-02-20T13:08:39.978Z,19.33
2018-02-20T13:11:07.441Z,18.37
2018-02-20T13:13:34.912Z,19.98
2018-02-20T13:16:02.355Z,20.85
2018-02-20T13:18:29.867Z,20.80
2018-02-20T13:20:58.191Z,21.80
2018-02-20T13:23:25.626Z,21.25
2018-02-20T13:25:53.087Z,20.48
2018-02-20T13:28:20.535Z,19.98
2018-02-20T13:30:48.013Z,19.33
2018-02-20T13:33:15.463Z,22.17
2018-02-20T13:35:43.003Z,25.58
2018-02-20T13:38:10.432Z,25.75
2018-02-20T13:40:38.658Z,24.08
2018-02-20T13:43:06.108Z,23.38
2018-02-20T13:45:33.565Z,24.77
2018-02-20T13:48:01.045Z,24.40
2018-02-20T13:50:28.468Z,24.70
2018-02-20T13:52:55.939Z,24.50
2018-02-20T13:55:23.384Z,24.83
2018-02-20T13:57:50.872Z,21.98
2018-02-20T14:00:18.334Z,22.65
2018-02-20T14:02:45.808Z,24.50
2018-02-20T14:05:13.242Z,21.95
2018-02-20T14:07:40.706Z,24.45
2018-02-20T14:10:08.140Z,22.37
2018-02-20T14:12:35.709Z,21.40
2018-02-20T14:15:03.155Z,21.83
2018-02-20T14:17:30.600Z,21.67
2018-02-20T14:19:58.082Z,20.40
2018-02-20T14:22:25.525Z,21.70
2018-02-20T14:24:52.983Z,23.73
2018-02-20T14:27:20.431Z,24.35
2018-02-20T14:29:47.943Z,24.98
2018-02-20T14:32:16.153Z,23.92
2018-02-20T14:34:43.595Z,25.58
2018-02-20T14:37:11.055Z,23.77
2018-02-20T14:39:38.540Z,23.17
2018-02-20T14:42:06.006Z,23.95
2018-02-20T14:44:33.471Z,21.90
2018-02-20T14:47:01.695Z,25.00
2018-02-20T14:49:29.164Z,25.55
2018-02-20T14:51:56.617Z,25.58
2018-02-20T14:54:24.077Z,26.10
2018-02-20T14:56:51.547Z,25.42
2018-02-20T14:59:18.999Z,27.50
2018-02-20T15:01:46.480Z,27.87
2018-02-20T15:04:13.952Z,28.23
2018-02-20T15:06:41.513Z,26.70
2018-02-20T15:09:09.836Z,26.33
2018-02-20T15:11:37.301Z,27.25
2018-02-20T15:14:04.743Z,28.25
2018-02-20T15:16:32.191Z,27.70
2018-02-20T15:18:59.658Z,27.70
2018-02-20T15:21:27.133Z,27.00
2018-02-20T15:23:54.576Z,26.80
2018-02-20T15:26:22.085Z,27.15
2018-02-20T15:28:49.519Z,28.10
2018-02-20T15:31:16.984Z,26.45
2018-02-20T15:33:44.425Z,27.67
2018-02-20T15:36:11.886Z,29.50
2018-02-20T15:38:39.333Z,26.62
2018-02-20T15:41:06.767Z,27.00
2018-02-20T15:43:34.226Z,29.45
2018-02-20T15:46:01.773Z,28.20
2018-02-20T15:48:29.243Z,28.65
2018-02-20T15:50:56.672Z,28.52
2018-02-20T15:53:24.152Z,29.60
2018-02-20T15:55:51.608Z,29.40
2018-02-20T15:58:19.075Z,28.70
2018-02-20T16:00:46.531Z,29.75
2018-02-20T16:03:14.002Z,30.62
2018-02-20T16:05:42.961Z,31.95
2018-02-20T16:08:10.427Z,29.00
2018-02-20T16:10:37.887Z,30.25
2018-02-20T16:13:05.348Z,30.58
2018-02-20T16:15:44.657Z,30.67
2018-02-20T16:18:12.144Z,29.02
2018-02-20T16:20:40.381Z,31.42
2018-02-20T16:23:07.851Z,30.02
2018-02-20T16:25:35.336Z,31.15
2018-02-20T16:28:02.799Z,30.77
2018-02-20T16:30:30.301Z,29.40
2018-02-20T16:32:57.775Z,29.73
2018-02-20T16:35:25.245Z,30.33
2018-02-20T16:37:52.703Z,30.60
2018-02-20T16:40:20.282Z,32.35
2018-02-20T16:42:47.737Z,31.92
2018-02-20T16:45:15.192Z,28.45
2018-02-20T16:47:42.636Z,30.90
2018-02-20T16:50:10.115Z,29.30
2018-02-20T16:52:37.672Z,30.05
2018-02-20T16:55:05.193Z,32.47
2018-02-20T16:57:32.652Z,33.00
2018-02-20T17:00:00.148Z,30.00
2018-02-20T17:02:27.648Z,28.45
2018-02-20T17:04:55.097Z,28.62
2018-02-20T17:07:22.587Z,29.95
2018-02-20T17:09:50.030Z,28.80
2018-02-20T17:12:17.554Z,30.98
2018-02-20T17:14:45.915Z,28.27
2018-02-20T17:17:14.220Z,30.88
2018-02-20T17:19:41.668Z,29.15
2018-02-20T17:22:09.160Z,31.17
2018-02-20T17:24:36.697Z,29.73
2018-02-20T17:27:04.380Z,30.65
2018-02-20T17:29:31.885Z,30.92
2018-02-20T17:32:00.098Z,29.75
2018-02-20T17:34:27.544Z,29.15
2018-02-20T17:36:54.999Z,29.33
2018-02-20T17:39:22.470Z,28.67
2018-02-20T17:41:49.925Z,29.12
2018-02-20T17:44:17.395Z,28.27
2018-02-20T17:46:44.843Z,29.42
2018-02-20T17:49:12.356Z,28.48
2018-02-20T17:51:40.579Z,26.85
2018-02-20T17:54:08.141Z,29.73
2018-02-20T17:56:35.603Z,28.15
2018-02-20T17:59:03.079Z,27.83
2018-02-20T18:01:30.532Z,28.92
2018-02-20T18:03:57.992Z,30.75
2018-02-20T18:06:25.441Z,30.10
2018-02-20T18:08:52.899Z,28.50
2018-02-20T18:11:20.357Z,27.30
2018-02-20T18:13:47.834Z,29.48
2018-02-20T18:16:15.286Z,29.52
2018-02-20T18:18:42.772Z,31.10
2018-02-20T18:21:10.976Z,29.52
2018-02-20T18:23:38.520Z,28.73
2018-02-20T18:26:05.979Z,30.90
2018-02-20T18:28:33.452Z,29.15
2018-02-20T18:31:00.933Z,32.55
2018-02-20T18:33:28.444Z,30.98
2018-02-20T18:35:55.908Z,28.45
2018-02-20T18:38:23.358Z,30.20
2018-02-20T18:40:50.822Z,30.25
2018-02-20T18:43:18.339Z,30.48
2018-02-20T18:45:46.578Z,30.60
2018-02-20T18:48:14.036Z,28.27
2018-02-20T18:50:41.489Z,30.17
2018-02-20T18:53:08.948Z,29.73
2018-02-20T18:55:37.227Z,30.40
2018-02-20T18:58:04.679Z,28.77
2018-02-20T19:00:32.357Z,29.90
2018-02-20T19:02:59.810Z,30.23
2018-02-20T19:05:27.298Z,30.25
2018-02-20T19:07:55.508Z,29.90
2018-02-20T19:10:23.009Z,29.00
2018-02-20T19:12:50.501Z,28.75
2018-02-20T19:15:17.947Z,29.37
2018-02-20T19:17:45.427Z,28.48
2018-02-20T19:20:12.934Z,25.98
2018-02-20T19:22:42.136Z,29.23
2018-02-20T19:25:10.404Z,27.95
2018-02-20T19:27:38.827Z,26.85
2018-02-20T19:30:06.443Z,27.27
2018-02-20T19:32:33.945Z,27.50
2018-02-20T19:35:01.409Z,26.98
2018-02-20T19:37:28.934Z,29.48
2018-02-20T19:40:00.716Z,27.83
2018-02-20T19:42:28.194Z,26.70
2018-02-20T19:44:55.651Z,28.17
2018-02-20T19:47:23.179Z,27.95
2018-02-20T19:49:50.624Z,27.77
2018-02-20T19:52:18.106Z,28.08
2018-02-20T19:54:45.630Z,26.77
2018-02-20T19:57:13.112Z,28.00
2018-02-20T19:59:40.654Z,27.45
2018-02-20T20:02:08.129Z,27.02
2018-02-20T20:04:35.758Z,30.25
2018-02-20T20:07:03.975Z,28.23
2018-02-20T20:09:31.451Z,29.90
2018-02-20T20:11:58.953Z,28.87
2018-02-20T20:14:26.422Z,28.40
2018-02-20T20:16:54.037Z,29.42
2018-02-20T20:19:21.503Z,30.30
2018-02-20T20:21:48.954Z,29.15
2018-02-20T20:24:17.185Z,31.00
2018-02-20T20:26:44.693Z,30.62
2018-02-20T20:29:12.891Z,30.48
2018-02-20T20:31:40.381Z,30.85
2018-02-20T20:34:07.814Z,28.80
2018-02-20T20:36:35.298Z,32.75
2018-02-20T20:39:02.782Z,29.10
2018-02-20T20:41:30.247Z,29.27
2018-02-20T20:43:59.830Z,30.95
2018-02-20T20:46:27.331Z,30.12
2018-02-20T20:48:55.760Z,29.83
2018-02-20T20:51:23.201Z,31.30
2018-02-20T20:53:50.759Z,31.80
2018-02-20T20:56:18.237Z,32.10
2018-02-20T20:58:45.777Z,32.65
2018-02-20T21:01:13.235Z,31.50
2018-02-20T21:03:40.702Z,30.62
2018-02-20T21:06:08.147Z,31.50
2018-02-20T21:08:35.768Z,31.58
2018-02-20T21:11:03.237Z,32.72
2018-02-20T21:13:30.694Z,33.67
2018-02-20T21:15:58.267Z,33.33
2018-02-20T21:18:25.745Z,32.40
2018-02-20T21:20:54.076Z,31.58
2018-02-20T21:23:21.504Z,34.55
2018-02-20T21:25:49.738Z,33.45
2018-02-20T21:28:17.179Z,34.08
2018-02-20T21:30:44.704Z,33.38
2018-02-20T21:33:12.168Z,33.80
2018-02-20T21:35:39.713Z,33.40
2018-02-20T21:38:07.944Z,35.88
2018-02-20T21:40:36.185Z,33.03
2018-02-20T21:43:03.678Z,36.90
2018-02-20T21:45:31.139Z,35.60
2018-02-20T21:47:58.592Z,35.13
2018-02-20T21:50:26.167Z,34.45
2018-02-20T21:52:54.426Z,33.90
2018-02-20T21:55:21.875Z,35.30
2018-02-20T21:57:49.384Z,33.20
2018-02-20T22:00:16.878Z,36.20
2018-02-20T22:02:44.464Z,35.28
2018-02-20T22:05:11.935Z,33.08
2018-02-20T22:07:43.411Z,32.97
2018-02-20T22:10:10.930Z,35.15
2018-02-20T22:12:38.446Z,35.47
2018-02-20T22:15:05.925Z,33.08
2018-02-20T22:17:33.454Z,33.85
2018-02-20T22:20:00.916Z,37.05
2018-02-20T22:22:28.478Z,35.90
2018-02-20T22:24:55.937Z,34.05
2018-02-20T22:27:23.386Z,33.42
2018-02-20T22:29:50.865Z,33.03
2018-02-20T22:32:19.090Z,35.40
2018-02-20T22:34:47.321Z,37.30
2018-02-20T22:37:14.855Z,34.58
2018-02-20T22:39:42.390Z,36.60
2018-02-20T22:42:10.075Z,36.95
2018-02-20T22:44:37.813Z,37.13
2018-02-20T22:47:05.323Z,35.88
2018-02-20T22:49:33.643Z,35.75
2018-02-20T22:52:05.420Z,37.00
2018-02-20T22:54:32.959Z,33.88
2018-02-20T22:57:00.409Z,35.53
2018-02-20T22:59:28.009Z,36.60
2018-02-20T23:01:55.539Z,35.65
2018-02-20T23:04:23.276Z,35.45
2018-02-20T23:06:50.782Z,36.30
2018-02-20T23:09:18.412Z,38.88
2018-02-20T23:11:48.148Z,38.13
2018-02-20T23:14:15.794Z,33.42
2018-02-20T23:16:43.295Z,35.45
2018-02-20T23:19:11.103Z,39.58
2018-02-20T23:21:38.696Z,35.20
2018-02-20T23:24:06.915Z,40.25
2018-02-20T23:26:35.169Z,37.08
2018-02-20T23:29:02.700Z,38.15
2018-02-20T23:31:30.244Z,38.55
2018-02-20T23:33:57.690Z,37.38
2018-02-20T23:36:25.156Z,39.33
2018-02-20T23:38:52.608Z,41.35
2018-02-20T23:41:20.099Z,37.28
2018-02-20T23:43:47.557Z,42.53
2018-02-20T23:46:15.138Z,38.92
2018-02-20T23:48:42.715Z,42.47
2018-02-20T23:51:16.144Z,37.17
2018-02-20T23:53:46.065Z,39.83
2018-02-20T23:56:13.528Z,36.95
2018-02-20T23:58:41.010Z,39.53
